Time;durP1;ratioP1;P1;durP2;ratioP2;P2;SDS_P1;SDS_P2;PMS_P1;PMS_P2;Temp;Humidity;BMP_temperature;BMP_pressure;BME280_temperature;BME280_humidity;BME280_pressure;Samples;Min_cycle;Max_cycle;Signal;HPM_P1;HPM_P2
2023/01/21 00:01:11;;;;;;;;;;;0.90;99.90;;;;;;5013679;28;19917;-74
2023/01/21 00:03:37;;;;;;;;;;;0.90;99.90;;;;;;5005832;28;20020;-73
2023/01/21 00:06:03;;;;;;;;;;;0.90;99.90;;;;;;5020346;28;19921;-72
2023/01/21 00:08:28;;;;;;;;;;;0.90;99.90;;;;;;5006634;28;20068;-73
2023/01/21 00:10:54;;;;;;;;;;;0.90;99.90;;;;;;5013785;28;19944;-76
2023/01/21 00:13:20;;;;;;;;;;;0.90;99.90;;;;;;5002132;28;20032;-74
2023/01/21 00:15:45;;;;;;;;;;;0.90;99.90;;;;;;5034147;28;19921;-72
2023/01/21 00:18:11;;;;;;;;;;;0.80;99.90;;;;;;5009083;28;19909;-73
2023/01/21 00:20:36;;;;;;;;;;;0.90;99.90;;;;;;5012615;28;19913;-73
2023/01/21 00:23:02;;;;;;;;;;;0.90;99.90;;;;;;5012341;28;19913;-72
2023/01/21 00:25:28;;;;;;;;;;;0.90;99.90;;;;;;5019417;28;19972;-69
2023/01/21 00:27:53;;;;;;;;;;;0.90;99.90;;;;;;5013299;28;19913;-70
2023/01/21 00:30:19;;;;;;;;;;;0.90;99.90;;;;;;5008496;28;20004;-74
2023/01/21 00:32:44;;;;;;;;;;;0.90;99.90;;;;;;5004691;28;19910;-71
2023/01/21 00:35:10;;;;;;;;;;;0.90;99.90;;;;;;5006461;28;20005;-71
2023/01/21 00:37:35;;;;;;;;;;;0.90;99.90;;;;;;5007253;28;20348;-70
2023/01/21 00:40:01;;;;;;;;;;;0.90;99.90;;;;;;5014202;28;19917;-71
2023/01/21 00:42:27;;;;;;;;;;;0.90;99.90;;;;;;5046001;28;19952;-71
2023/01/21 00:44:53;;;;;;;;;;;0.90;99.90;;;;;;5020514;28;19917;-70
2023/01/21 00:47:19;;;;;;;;;;;0.90;99.90;;;;;;5022761;28;19913;-69
2023/01/21 00:49:44;;;;;;;;;;;0.90;99.90;;;;;;5011322;28;19925;-70
2023/01/21 00:52:10;;;;;;;;;;;0.90;99.90;;;;;;5011454;28;19913;-71
2023/01/21 00:54:36;;;;;;;;;;;0.90;99.90;;;;;;5005302;28;20379;-71
2023/01/21 00:57:01;;;;;;;;;;;0.80;99.90;;;;;;5003345;28;20524;-70
2023/01/21 00:59:27;;;;;;;;;;;0.80;99.90;;;;;;5008226;28;19921;-71
2023/01/21 01:01:52;;;;;;;;;;;0.90;99.90;;;;;;5010532;28;19916;-71
2023/01/21 01:04:18;;;;;;;;;;;0.80;99.90;;;;;;4997554;28;19972;-72
2023/01/21 01:06:44;;;;;;;;;;;0.80;99.90;;;;;;5006159;28;19921;-71
2023/01/21 01:09:11;;;;;;;;;;;0.80;99.90;;;;;;5015891;28;20578;-70
2023/01/21 01:11:37;;;;;;;;;;;0.80;99.90;;;;;;5009580;28;20283;-69
2023/01/21 01:14:03;;;;;;;;;;;0.80;99.90;;;;;;5014217;28;19909;-71
2023/01/21 01:16:28;;;;;;;;;;;0.80;99.90;;;;;;4997193;28;19979;-70
2023/01/21 01:18:54;;;;;;;;;;;0.80;99.90;;;;;;5007851;28;19916;-70
2023/01/21 01:21:21;;;;;;;;;;;0.80;99.90;;;;;;5008262;28;19920;-70
2023/01/21 01:23:47;;;;;;;;;;;0.70;99.90;;;;;;5010393;28;19976;-71
2023/01/21 01:26:13;;;;;;;;;;;0.80;99.90;;;;;;5011294;28;20263;-70
2023/01/21 01:28:39;;;;;;;;;;;0.80;99.90;;;;;;5007044;28;20078;-69
2023/01/21 01:31:05;;;;;;;;;;;0.80;99.90;;;;;;5008112;28;19987;-75
2023/01/21 01:33:31;;;;;;;;;;;0.80;99.90;;;;;;4998916;28;19910;-75
2023/01/21 01:36:00;;;;;;;;;;;0.80;99.90;;;;;;5007497;28;19917;-75
2023/01/21 01:38:25;;;;;;;;;;;0.80;99.90;;;;;;4998218;28;19920;-74
2023/01/21 01:40:52;;;;;;;;;;;0.80;99.90;;;;;;5015395;28;19917;-74
2023/01/21 01:43:19;;;;;;;;;;;0.80;99.90;;;;;;5011275;28;20368;-76
2023/01/21 01:45:46;;;;;;;;;;;0.80;99.90;;;;;;5011109;28;19989;-73
2023/01/21 01:48:15;;;;;;;;;;;0.80;99.90;;;;;;5009233;28;19917;-72
2023/01/21 01:50:41;;;;;;;;;;;0.80;99.90;;;;;;5009465;28;20377;-74
2023/01/21 01:53:08;;;;;;;;;;;0.70;99.90;;;;;;5004521;28;19956;-73
2023/01/21 01:55:34;;;;;;;;;;;0.80;99.90;;;;;;5010856;28;20052;-73
2023/01/21 01:58:01;;;;;;;;;;;0.80;99.90;;;;;;5009783;28;19913;-75
2023/01/21 02:00:27;;;;;;;;;;;0.80;99.90;;;;;;5003331;28;20029;-75
2023/01/21 02:05:39;;;;;;;;;;;0.80;99.90;;;;;;5016174;28;20350;-76
2023/01/21 02:08:05;;;;;;;;;;;0.80;99.90;;;;;;5014017;28;19925;-73
2023/01/21 02:10:30;;;;;;;;;;;0.80;99.90;;;;;;5008728;28;19964;-73
2023/01/21 02:12:56;;;;;;;;;;;0.80;99.90;;;;;;5010842;28;19913;-73
2023/01/21 02:15:26;;;;;;;;;;;0.80;99.90;;;;;;5010843;28;19910;-76
2023/01/21 02:17:54;;;;;;;;;;;0.80;99.90;;;;;;5011399;28;19917;-74
2023/01/21 02:20:32;;;;;;;;;;;0.80;99.90;;;;;;5013053;28;19921;-74
2023/01/21 02:23:04;;;;;;;;;;;0.80;99.90;;;;;;5013365;28;20267;-76
2023/01/21 02:25:51;;;;;;;;;;;0.80;99.90;;;;;;5015350;28;20021;-77
2023/01/21 02:28:35;;;;;;;;;;;0.80;99.90;;;;;;5017034;28;19914;-74
2023/01/21 02:31:19;;;;;;;;;;;0.80;99.90;;;;;;5010723;28;20375;-74
2023/01/21 02:33:52;;;;;;;;;;;0.80;99.90;;;;;;5011239;28;19956;-73
2023/01/21 02:36:33;;;;;;;;;;;0.70;99.90;;;;;;5002086;28;19913;-73
2023/01/21 02:39:01;;;;;;;;;;;0.70;99.90;;;;;;5005113;28;20452;-75
2023/01/21 02:41:33;;;;;;;;;;;0.70;99.90;;;;;;5001214;28;19960;-76
2023/01/21 02:44:07;;;;;;;;;;;0.80;99.90;;;;;;5008548;28;19917;-77
2023/01/21 02:46:37;;;;;;;;;;;0.80;99.90;;;;;;5002883;28;19992;-73
2023/01/21 02:49:05;;;;;;;;;;;0.70;99.90;;;;;;5007433;28;19968;-77
2023/01/21 02:51:30;;;;;;;;;;;0.80;99.90;;;;;;5025127;28;19981;-72
2023/01/21 02:53:56;;;;;;;;;;;0.70;99.90;;;;;;5005263;28;19941;-72
2023/01/21 02:56:23;;;;;;;;;;;0.80;99.90;;;;;;5015881;28;20008;-77
2023/01/21 02:58:51;;;;;;;;;;;0.70;99.90;;;;;;5018373;28;19917;-73
2023/01/21 03:01:17;;;;;;;;;;;0.60;99.90;;;;;;5026978;28;20433;-75
2023/01/21 03:03:48;;;;;;;;;;;0.60;99.90;;;;;;5020702;28;19913;-73
2023/01/21 03:06:19;;;;;;;;;;;0.60;99.90;;;;;;5003152;28;19922;-75
2023/01/21 03:08:50;;;;;;;;;;;0.50;99.90;;;;;;5009808;28;19914;-74
2023/01/21 03:11:17;;;;;;;;;;;0.50;99.90;;;;;;5017965;28;19924;-74
2023/01/21 03:19:19;;;;;;;;;;;0.50;99.90;;;;;;5030667;28;19959;-76
2023/01/21 03:21:45;;;;;;;;;;;0.60;99.90;;;;;;5013384;28;19925;-74
2023/01/21 03:24:12;;;;;;;;;;;0.60;99.90;;;;;;5018458;28;19909;-72
2023/01/21 03:26:41;;;;;;;;;;;0.60;99.90;;;;;;5011174;28;19909;-74
2023/01/21 03:29:10;;;;;;;;;;;0.60;99.90;;;;;;4999148;28;19910;-74
2023/01/21 03:31:38;;;;;;;;;;;0.60;99.90;;;;;;5017409;28;19922;-75
2023/01/21 03:34:05;;;;;;;;;;;0.60;99.90;;;;;;5008028;28;20435;-76
2023/01/21 03:36:43;;;;;;;;;;;0.60;99.90;;;;;;5012498;28;20000;-74
2023/01/21 03:39:13;;;;;;;;;;;0.50;99.90;;;;;;5010937;28;20374;-76
2023/01/21 03:41:39;;;;;;;;;;;0.60;99.90;;;;;;5009150;28;19944;-73
2023/01/21 03:44:05;;;;;;;;;;;0.50;99.90;;;;;;5012661;28;19910;-72
2023/01/21 03:46:39;;;;;;;;;;;0.50;99.90;;;;;;5009559;28;19917;-74
2023/01/21 03:49:09;;;;;;;;;;;0.50;99.90;;;;;;5008674;28;19939;-72
2023/01/21 03:51:37;;;;;;;;;;;0.50;99.90;;;;;;5006538;28;19921;-75
2023/01/21 03:54:03;;;;;;;;;;;0.50;99.90;;;;;;5008327;28;19917;-73
2023/01/21 03:56:28;;;;;;;;;;;0.50;99.90;;;;;;5005076;28;19918;-79
2023/01/21 03:58:54;;;;;;;;;;;0.50;99.90;;;;;;5004920;28;19925;-73
2023/01/21 04:01:20;;;;;;;;;;;0.60;99.90;;;;;;5017988;28;19968;-76
2023/01/21 04:03:45;;;;;;;;;;;0.60;99.90;;;;;;5009581;28;20293;-73
2023/01/21 04:06:17;;;;;;;;;;;0.50;99.90;;;;;;5009597;28;19997;-75
2023/01/21 04:08:43;;;;;;;;;;;0.60;99.90;;;;;;5004515;28;19914;-72
2023/01/21 04:11:08;;;;;;;;;;;0.50;99.90;;;;;;5010721;28;19921;-75
2023/01/21 04:13:34;;;;;;;;;;;0.50;99.90;;;;;;5013463;28;19924;-76
2023/01/21 04:15:59;;;;;;;;;;;0.50;99.90;;;;;;5006653;28;19960;-75
2023/01/21 04:18:25;;;;;;;;;;;0.50;99.90;;;;;;5020004;28;20624;-74
2023/01/21 04:20:51;;;;;;;;;;;0.40;99.90;;;;;;5006226;28;19921;-73
2023/01/21 04:23:16;;;;;;;;;;;0.40;99.90;;;;;;5012629;28;19971;-74
2023/01/21 04:25:42;;;;;;;;;;;0.40;99.90;;;;;;5005487;28;19930;-75
2023/01/21 04:28:07;;;;;;;;;;;0.40;99.90;;;;;;5010102;28;19917;-75
2023/01/21 04:30:33;;;;;;;;;;;0.40;99.90;;;;;;5011579;28;20008;-74
2023/01/21 04:32:58;;;;;;;;;;;0.40;99.90;;;;;;5009655;28;19997;-73
2023/01/21 04:35:24;;;;;;;;;;;0.40;99.90;;;;;;5015954;28;19976;-78
2023/01/21 04:37:49;;;;;;;;;;;0.50;99.90;;;;;;5020456;28;19933;-78
2023/01/21 04:40:15;;;;;;;;;;;0.40;99.90;;;;;;5022388;28;19972;-76
2023/01/21 04:42:41;;;;;;;;;;;0.40;99.90;;;;;;5014603;28;19917;-73
2023/01/21 04:45:07;;;;;;;;;;;0.60;99.90;;;;;;5030310;28;19977;-76
2023/01/21 04:47:32;;;;;;;;;;;0.60;99.90;;;;;;5015188;28;19989;-75
2023/01/21 04:49:58;;;;;;;;;;;0.70;99.90;;;;;;5024274;28;20609;-74
2023/01/21 04:52:23;;;;;;;;;;;0.60;99.90;;;;;;5015694;28;20367;-72
2023/01/21 04:54:49;;;;;;;;;;;0.60;99.90;;;;;;5006486;28;19917;-72
2023/01/21 04:57:14;;;;;;;;;;;0.60;99.90;;;;;;5006839;28;19913;-73
2023/01/21 04:59:40;;;;;;;;;;;0.50;99.90;;;;;;5016564;28;19912;-73
2023/01/21 05:02:05;;;;;;;;;;;0.50;99.90;;;;;;5008287;28;19921;-73
2023/01/21 05:04:31;;;;;;;;;;;0.50;99.90;;;;;;5014504;28;19909;-74
2023/01/21 05:06:57;;;;;;;;;;;0.40;99.90;;;;;;5002388;28;19953;-74
2023/01/21 05:09:23;;;;;;;;;;;0.40;99.90;;;;;;5011759;28;19909;-76
2023/01/21 05:11:48;;;;;;;;;;;0.40;99.90;;;;;;5004104;28;19925;-75
2023/01/21 05:14:14;;;;;;;;;;;0.40;99.90;;;;;;5005482;28;20012;-72
2023/01/21 05:16:39;;;;;;;;;;;0.30;99.90;;;;;;5012735;28;19937;-74
2023/01/21 05:19:05;;;;;;;;;;;0.30;99.90;;;;;;5011329;28;19917;-74
2023/01/21 05:21:30;;;;;;;;;;;0.30;99.90;;;;;;5014359;28;19916;-75
2023/01/21 05:23:56;;;;;;;;;;;0.30;99.90;;;;;;5015722;28;19932;-74
2023/01/21 05:26:21;;;;;;;;;;;0.20;99.90;;;;;;5014954;28;19917;-75
2023/01/21 05:28:47;;;;;;;;;;;0.20;99.90;;;;;;5007433;28;19917;-71
2023/01/21 05:31:13;;;;;;;;;;;0.30;99.90;;;;;;5013103;28;20236;-74
2023/01/21 05:33:38;;;;;;;;;;;0.30;99.90;;;;;;5021768;28;19960;-72
2023/01/21 05:36:04;;;;;;;;;;;0.20;99.90;;;;;;5012020;28;19920;-72
2023/01/21 05:38:30;;;;;;;;;;;0.30;99.90;;;;;;5002675;28;19964;-73
2023/01/21 05:40:56;;;;;;;;;;;0.30;99.90;;;;;;5008531;28;19913;-71
2023/01/21 05:43:22;;;;;;;;;;;0.30;99.90;;;;;;5018420;28;19931;-71
2023/01/21 05:45:47;;;;;;;;;;;0.30;99.90;;;;;;5010914;28;19910;-69
2023/01/21 05:48:13;;;;;;;;;;;0.30;99.90;;;;;;5007240;28;20359;-71
2023/01/21 05:50:38;;;;;;;;;;;0.30;99.90;;;;;;5011906;28;20008;-72
2023/01/21 05:53:04;;;;;;;;;;;0.40;99.90;;;;;;5015106;28;19977;-70
2023/01/21 05:55:29;;;;;;;;;;;0.40;99.90;;;;;;5018247;28;19968;-70
2023/01/21 05:57:55;;;;;;;;;;;0.40;99.90;;;;;;5029790;28;19924;-76
2023/01/21 06:00:21;;;;;;;;;;;0.40;99.90;;;;;;5014099;28;20216;-75
2023/01/21 06:02:47;;;;;;;;;;;0.40;99.90;;;;;;5015186;28;19940;-71
2023/01/21 06:05:13;;;;;;;;;;;0.30;99.90;;;;;;5019294;28;19914;-73
2023/01/21 06:07:38;;;;;;;;;;;0.30;99.90;;;;;;5016220;28;19921;-73
2023/01/21 06:10:04;;;;;;;;;;;0.30;99.90;;;;;;5012603;28;20586;-76
2023/01/21 06:12:29;;;;;;;;;;;0.40;99.90;;;;;;5008001;28;20055;-75
2023/01/21 06:14:55;;;;;;;;;;;0.40;99.90;;;;;;5009320;28;19985;-76
2023/01/21 06:17:21;;;;;;;;;;;0.40;99.90;;;;;;5002903;28;19922;-75
2023/01/21 06:19:46;;;;;;;;;;;0.30;99.90;;;;;;5007260;28;19949;-73
2023/01/21 06:22:13;;;;;;;;;;;0.30;99.90;;;;;;5009548;28;19939;-72
2023/01/21 06:24:39;;;;;;;;;;;0.40;99.90;;;;;;5034461;28;19914;-74
2023/01/21 06:27:04;;;;;;;;;;;0.40;99.90;;;;;;5025419;28;19979;-76
2023/01/21 06:29:30;;;;;;;;;;;0.40;99.90;;;;;;5013673;28;19913;-72
2023/01/21 06:31:55;;;;;;;;;;;0.40;99.90;;;;;;5016040;28;19920;-74
2023/01/21 06:34:21;;;;;;;;;;;0.50;99.90;;;;;;5016283;28;19937;-74
2023/01/21 06:36:46;;;;;;;;;;;0.40;99.90;;;;;;5020898;28;19965;-75
2023/01/21 06:39:12;;;;;;;;;;;0.30;99.90;;;;;;5012428;28;19913;-75
2023/01/21 06:41:38;;;;;;;;;;;0.40;99.90;;;;;;5008921;28;19910;-76
2023/01/21 06:44:03;;;;;;;;;;;0.40;99.90;;;;;;5021799;28;20047;-76
2023/01/21 06:46:29;;;;;;;;;;;0.30;99.90;;;;;;5007014;28;20464;-76
2023/01/21 06:48:55;;;;;;;;;;;0.30;99.90;;;;;;5012753;28;20334;-74
2023/01/21 06:51:20;;;;;;;;;;;0.20;99.90;;;;;;5012210;28;20291;-76
2023/01/21 06:53:46;;;;;;;;;;;0.20;99.90;;;;;;5007384;28;19918;-73
2023/01/21 06:56:11;;;;;;;;;;;0.30;99.90;;;;;;5007735;28;19960;-75
2023/01/21 06:58:37;;;;;;;;;;;0.30;99.90;;;;;;4999699;28;19968;-73
2023/01/21 07:01:02;;;;;;;;;;;0.30;99.90;;;;;;5006085;28;19918;-73
2023/01/21 07:03:28;;;;;;;;;;;0.30;99.90;;;;;;5002015;28;19909;-74
2023/01/21 07:05:55;;;;;;;;;;;0.30;99.90;;;;;;5003021;28;20651;-73
2023/01/21 07:08:20;;;;;;;;;;;0.30;99.90;;;;;;5008790;28;20313;-73
2023/01/21 07:10:46;;;;;;;;;;;0.40;99.90;;;;;;5007771;28;19956;-76
2023/01/21 07:13:11;;;;;;;;;;;0.30;99.90;;;;;;4998841;28;19929;-77
2023/01/21 07:15:37;;;;;;;;;;;0.40;99.90;;;;;;5006247;28;20286;-74
2023/01/21 07:18:02;;;;;;;;;;;0.40;99.90;;;;;;5009404;28;19913;-72
2023/01/21 07:20:28;;;;;;;;;;;0.60;99.90;;;;;;5004735;28;19913;-73
2023/01/21 07:22:54;;;;;;;;;;;0.50;99.90;;;;;;5000079;28;19913;-73
2023/01/21 07:25:19;;;;;;;;;;;0.50;99.90;;;;;;5012438;28;20306;-79
2023/01/21 07:27:45;;;;;;;;;;;0.60;99.90;;;;;;5005235;28;19921;-75
2023/01/21 07:30:14;;;;;;;;;;;0.60;99.90;;;;;;5007141;28;19924;-74
2023/01/21 07:32:40;;;;;;;;;;;0.60;99.90;;;;;;5012579;28;20350;-73
2023/01/21 07:35:06;;;;;;;;;;;0.70;99.90;;;;;;5007652;28;19913;-76
2023/01/21 07:37:31;;;;;;;;;;;0.70;99.90;;;;;;5010528;28;19921;-76
2023/01/21 07:39:57;;;;;;;;;;;0.80;99.90;;;;;;5011657;28;19917;-75
2023/01/21 07:42:22;;;;;;;;;;;0.80;99.90;;;;;;5010110;28;20121;-75
2023/01/21 07:44:47;;;;;;;;;;;0.90;99.90;;;;;;5006664;28;19924;-75
2023/01/21 07:47:13;;;;;;;;;;;0.90;99.90;;;;;;5007942;28;20283;-73
2023/01/21 07:49:39;;;;;;;;;;;0.90;99.90;;;;;;5014412;28;20068;-75
2023/01/21 07:52:05;;;;;;;;;;;0.80;99.90;;;;;;4997332;28;19913;-75
2023/01/21 07:54:30;;;;;;;;;;;0.80;99.90;;;;;;5006207;28;20312;-75
2023/01/21 07:56:56;;;;;;;;;;;0.90;99.90;;;;;;5011780;28;19916;-77
2023/01/21 07:59:22;;;;;;;;;;;0.90;99.90;;;;;;5015927;28;19921;-72
2023/01/21 08:01:48;;;;;;;;;;;0.90;99.90;;;;;;5005603;28;19972;-74
2023/01/21 08:04:14;;;;;;;;;;;0.80;99.90;;;;;;5011403;28;19914;-76
2023/01/21 08:06:42;;;;;;;;;;;0.80;99.90;;;;;;5016313;28;19921;-76
2023/01/21 08:09:08;;;;;;;;;;;0.80;99.90;;;;;;5005209;28;19913;-78
2023/01/21 08:11:34;;;;;;;;;;;0.90;99.90;;;;;;5017664;28;19953;-74
2023/01/21 08:14:00;;;;;;;;;;;1.00;99.90;;;;;;5024317;28;19917;-73
2023/01/21 08:16:25;;;;;;;;;;;1.00;99.90;;;;;;5017339;28;20387;-76
2023/01/21 08:18:51;;;;;;;;;;;1.10;99.90;;;;;;5008561;28;20004;-75
2023/01/21 08:21:19;;;;;;;;;;;1.10;99.90;;;;;;5004266;28;19921;-74
2023/01/21 08:23:45;;;;;;;;;;;1.20;99.90;;;;;;5001567;28;19965;-73
2023/01/21 08:26:11;;;;;;;;;;;1.10;99.90;;;;;;4999612;28;19917;-73
2023/01/21 08:28:36;;;;;;;;;;;1.10;99.90;;;;;;5001587;28;20302;-76
2023/01/21 08:31:03;;;;;;;;;;;1.20;99.90;;;;;;5003883;28;19913;-77
2023/01/21 08:33:29;;;;;;;;;;;1.20;99.90;;;;;;5004969;28;19929;-76
2023/01/21 08:35:58;;;;;;;;;;;1.10;99.90;;;;;;4996662;28;20029;-75
2023/01/21 08:38:23;;;;;;;;;;;1.10;99.90;;;;;;5000258;28;20291;-73
2023/01/21 08:40:49;;;;;;;;;;;1.20;99.90;;;;;;5008559;28;19917;-72
2023/01/21 08:43:14;;;;;;;;;;;1.10;99.90;;;;;;5006448;28;19924;-76
2023/01/21 08:45:40;;;;;;;;;;;1.00;99.90;;;;;;5014906;28;19951;-74
2023/01/21 08:48:06;;;;;;;;;;;1.00;99.90;;;;;;5012237;28;20003;-73
2023/01/21 08:50:32;;;;;;;;;;;1.00;99.90;;;;;;5004691;28;20031;-75
2023/01/21 08:52:57;;;;;;;;;;;0.90;99.90;;;;;;5012383;28;20000;-74
2023/01/21 08:55:26;;;;;;;;;;;1.00;99.90;;;;;;5006963;28;19945;-73
2023/01/21 08:57:53;;;;;;;;;;;1.10;99.90;;;;;;5011482;28;19917;-77
2023/01/21 09:00:19;;;;;;;;;;;1.30;99.90;;;;;;5013642;28;19924;-71
2023/01/21 09:02:44;;;;;;;;;;;1.40;99.90;;;;;;5015460;28;19952;-78
2023/01/21 09:05:10;;;;;;;;;;;1.20;99.90;;;;;;5002262;28;20457;-75
2023/01/21 09:07:35;;;;;;;;;;;1.00;99.90;;;;;;5005721;28;19921;-77
2023/01/21 09:10:02;;;;;;;;;;;0.80;99.90;;;;;;5008554;28;20325;-76
2023/01/21 09:12:27;;;;;;;;;;;0.80;99.90;;;;;;5002322;28;19937;-75
2023/01/21 09:14:53;;;;;;;;;;;0.80;99.90;;;;;;4998098;28;19921;-74
2023/01/21 09:17:19;;;;;;;;;;;0.90;99.90;;;;;;5002336;28;19981;-78
2023/01/21 09:19:44;;;;;;;;;;;0.90;99.90;;;;;;5001030;28;19917;-77
2023/01/21 09:22:10;;;;;;;;;;;0.80;99.90;;;;;;5000907;28;19913;-73
2023/01/21 09:24:35;;;;;;;;;;;0.80;99.90;;;;;;4998189;28;20453;-74
2023/01/21 09:27:01;;;;;;;;;;;0.60;99.90;;;;;;5002447;28;19909;-75
2023/01/21 09:29:27;;;;;;;;;;;0.60;99.90;;;;;;4999645;28;19964;-77
2023/01/21 09:31:52;;;;;;;;;;;0.40;99.90;;;;;;5005250;28;19920;-76
2023/01/21 09:34:18;;;;;;;;;;;0.50;99.90;;;;;;5003507;28;19910;-77
2023/01/21 09:36:43;;;;;;;;;;;0.50;99.90;;;;;;5006206;28;20007;-73
2023/01/21 09:39:09;;;;;;;;;;;0.50;99.90;;;;;;5006849;28;19917;-73
2023/01/21 09:41:34;;;;;;;;;;;0.60;99.90;;;;;;5021243;28;20430;-76
2023/01/21 09:44:03;;;;;;;;;;;0.60;99.90;;;;;;5015522;28;20316;-74
2023/01/21 09:46:39;;;;;;;;;;;0.40;99.90;;;;;;5015895;28;19910;-77
2023/01/21 09:49:07;;;;;;;;;;;0.40;99.90;;;;;;5025532;28;19994;-76
2023/01/21 09:51:42;;;;;;;;;;;0.40;99.90;;;;;;5005314;28;20453;-73
2023/01/21 09:54:17;;;;;;;;;;;0.50;99.90;;;;;;5015785;28;19914;-75
2023/01/21 09:56:51;;;;;;;;;;;0.50;99.90;;;;;;5031097;28;20492;-76
2023/01/21 09:59:32;;;;;;;;;;;0.60;99.90;;;;;;5005416;28;19983;-75
2023/01/21 10:01:59;;;;;;;;;;;0.70;99.90;;;;;;5010141;28;20000;-74
2023/01/21 10:04:37;;;;;;;;;;;0.70;99.90;;;;;;5013160;28;20044;-76
2023/01/21 10:07:06;;;;;;;;;;;0.80;99.90;;;;;;5025483;28;19924;-74
2023/01/21 10:09:35;;;;;;;;;;;1.00;99.90;;;;;;5007134;28;19913;-75
2023/01/21 10:12:03;;;;;;;;;;;1.00;99.90;;;;;;5009529;28;19922;-75
2023/01/21 10:14:49;;;;;;;;;;;1.00;99.90;;;;;;5004639;28;19922;-75
2023/01/21 10:17:18;;;;;;;;;;;1.20;99.90;;;;;;5006663;28;19920;-73
2023/01/21 10:19:51;;;;;;;;;;;1.30;99.90;;;;;;5019218;28;19936;-75
2023/01/21 10:22:19;;;;;;;;;;;1.50;99.90;;;;;;5024821;28;20032;-75
2023/01/21 10:24:47;;;;;;;;;;;1.60;99.90;;;;;;5022069;28;20150;-74
2023/01/21 10:27:17;;;;;;;;;;;1.60;99.90;;;;;;5020791;28;19913;-77
2023/01/21 10:29:43;;;;;;;;;;;1.60;99.90;;;;;;5011152;28;19917;-77
2023/01/21 10:32:13;;;;;;;;;;;1.70;99.90;;;;;;5013146;28;19915;-76
2023/01/21 10:34:43;;;;;;;;;;;1.90;99.90;;;;;;5005009;28;19941;-75
2023/01/21 10:37:19;;;;;;;;;;;1.90;99.90;;;;;;5009401;28;19910;-75
2023/01/21 10:39:44;;;;;;;;;;;2.10;99.90;;;;;;5005838;28;19925;-75
2023/01/21 10:42:22;;;;;;;;;;;2.20;99.90;;;;;;5012611;28;20670;-76
2023/01/21 10:44:55;;;;;;;;;;;2.40;99.90;;;;;;5020820;28;19937;-76
2023/01/21 10:47:38;;;;;;;;;;;2.40;99.90;;;;;;5004534;28;19921;-75
2023/01/21 10:50:21;;;;;;;;;;;2.50;99.90;;;;;;5004027;28;19920;-76
2023/01/21 10:52:54;;;;;;;;;;;2.60;99.90;;;;;;5012737;28;20042;-74
2023/01/21 10:55:40;;;;;;;;;;;2.60;99.90;;;;;;5023860;28;19921;-74
2023/01/21 10:58:13;;;;;;;;;;;2.60;99.90;;;;;;5012853;28;20027;-74
2023/01/21 11:00:42;;;;;;;;;;;2.70;99.90;;;;;;5015210;28;19914;-78
2023/01/21 11:03:17;;;;;;;;;;;2.90;99.90;;;;;;5006374;28;19949;-74
2023/01/21 11:05:43;;;;;;;;;;;3.00;99.90;;;;;;5012149;28;19919;-75
2023/01/21 11:08:14;;;;;;;;;;;3.10;99.90;;;;;;5005381;28;20020;-74
2023/01/21 11:10:39;;;;;;;;;;;3.10;99.90;;;;;;5008103;28;19998;-74
2023/01/21 11:13:08;;;;;;;;;;;2.90;99.90;;;;;;4997942;28;19983;-76
2023/01/21 11:15:43;;;;;;;;;;;3.00;99.90;;;;;;5009439;28;19977;-74
2023/01/21 11:18:27;;;;;;;;;;;3.00;99.90;;;;;;5009067;28;20374;-75
2023/01/21 11:20:55;;;;;;;;;;;3.00;99.90;;;;;;5003759;28;19920;-75
2023/01/21 11:23:30;;;;;;;;;;;3.00;99.90;;;;;;5004341;28;19914;-74
2023/01/21 11:26:02;;;;;;;;;;;3.20;99.90;;;;;;5016974;28;20000;-74
2023/01/21 11:28:31;;;;;;;;;;;3.20;99.90;;;;;;5008875;28;20015;-72
2023/01/21 11:31:05;;;;;;;;;;;3.30;99.90;;;;;;5011637;28;19932;-75
2023/01/21 11:33:31;;;;;;;;;;;3.20;99.90;;;;;;5011232;28;19917;-73
2023/01/21 11:36:07;;;;;;;;;;;3.30;99.90;;;;;;5008410;28;19909;-73
2023/01/21 11:38:34;;;;;;;;;;;3.60;99.90;;;;;;4998864;28;19910;-72
2023/01/21 11:41:19;;;;;;;;;;;3.80;99.90;;;;;;5002741;28;20015;-72
2023/01/21 11:43:47;;;;;;;;;;;3.90;99.90;;;;;;4997115;28;19929;-74
2023/01/21 11:46:25;;;;;;;;;;;4.10;99.90;;;;;;4992850;28;19910;-76
2023/01/21 11:48:55;;;;;;;;;;;3.90;99.90;;;;;;5002450;28;19936;-76
2023/01/21 11:51:20;;;;;;;;;;;3.80;99.90;;;;;;5005104;28;19920;-71
2023/01/21 11:53:46;;;;;;;;;;;3.50;99.90;;;;;;5002449;28;19929;-75
2023/01/21 11:56:12;;;;;;;;;;;3.50;99.90;;;;;;5006500;28;19909;-75
2023/01/21 11:58:38;;;;;;;;;;;3.40;99.90;;;;;;5003927;28;19917;-75
2023/01/21 12:01:06;;;;;;;;;;;3.30;99.90;;;;;;5002063;28;19914;-75
2023/01/21 12:03:46;;;;;;;;;;;2.90;99.90;;;;;;5001184;28;19910;-75
2023/01/21 12:06:19;;;;;;;;;;;2.80;99.90;;;;;;5000497;28;19914;-73
2023/01/21 12:08:47;;;;;;;;;;;2.30;99.90;;;;;;5015403;28;19914;-73
2023/01/21 12:11:17;;;;;;;;;;;2.20;99.90;;;;;;5012804;28;19948;-73
2023/01/21 12:14:03;;;;;;;;;;;2.10;99.90;;;;;;5007809;28;19921;-73
2023/01/21 12:16:31;;;;;;;;;;;2.10;99.90;;;;;;5004476;28;20381;-75
2023/01/21 12:18:56;;;;;;;;;;;2.30;99.90;;;;;;5014240;28;20482;-75
2023/01/21 12:21:31;;;;;;;;;;;2.40;99.90;;;;;;5027349;28;19917;-75
2023/01/21 12:24:12;;;;;;;;;;;2.50;99.90;;;;;;5026432;28;19902;-78
2023/01/21 12:26:56;;;;;;;;;;;2.20;99.90;;;;;;5026315;28;19914;-76
2023/01/21 12:29:29;;;;;;;;;;;2.10;99.90;;;;;;5021031;28;19937;-75
2023/01/21 12:31:58;;;;;;;;;;;2.10;99.90;;;;;;5029545;28;19909;-76
2023/01/21 12:34:27;;;;;;;;;;;2.20;99.90;;;;;;5017412;28;20342;-75
2023/01/21 12:36:58;;;;;;;;;;;2.30;99.90;;;;;;5002832;28;19914;-72
2023/01/21 12:39:24;;;;;;;;;;;2.20;99.90;;;;;;5019799;28;20355;-74
2023/01/21 12:41:59;;;;;;;;;;;2.30;99.90;;;;;;5008923;28;20545;-75
2023/01/21 12:44:31;;;;;;;;;;;2.30;99.90;;;;;;5005908;28;20237;-75
2023/01/21 12:46:59;;;;;;;;;;;2.20;99.90;;;;;;5016406;28;19940;-73
2023/01/21 12:49:45;;;;;;;;;;;2.30;99.90;;;;;;5015391;28;19920;-74
2023/01/21 12:52:20;;;;;;;;;;;2.10;99.90;;;;;;5006799;28;19967;-74
2023/01/21 12:54:57;;;;;;;;;;;2.20;99.90;;;;;;5002612;28;19910;-74
2023/01/21 12:57:27;;;;;;;;;;;2.40;99.90;;;;;;5006950;28;19910;-76
2023/01/21 13:00:04;;;;;;;;;;;2.40;99.90;;;;;;5009449;28;19913;-75
2023/01/21 13:02:37;;;;;;;;;;;2.30;99.90;;;;;;4993453;28;19914;-75
2023/01/21 13:05:08;;;;;;;;;;;2.50;99.90;;;;;;5004757;28;19917;-74
2023/01/21 13:07:52;;;;;;;;;;;2.30;99.90;;;;;;5000912;28;19925;-76
2023/01/21 13:10:35;;;;;;;;;;;2.40;99.90;;;;;;5004846;28;19913;-74
2023/01/21 13:13:05;;;;;;;;;;;2.60;99.90;;;;;;4997584;28;19920;-74
2023/01/21 13:15:34;;;;;;;;;;;2.40;99.90;;;;;;4999356;28;20048;-75
2023/01/21 13:18:03;;;;;;;;;;;2.40;99.90;;;;;;4996501;28;19921;-74
2023/01/21 13:20:30;;;;;;;;;;;2.50;99.90;;;;;;4993011;28;19922;-75
2023/01/21 13:23:10;;;;;;;;;;;2.50;99.90;;;;;;4996907;28;19920;-74
2023/01/21 13:25:36;;;;;;;;;;;2.30;99.90;;;;;;5009405;28;19914;-73
2023/01/21 13:28:01;;;;;;;;;;;2.10;99.90;;;;;;5006005;28;20063;-73
2023/01/21 13:30:30;;;;;;;;;;;2.20;99.90;;;;;;5007302;28;19909;-75
2023/01/21 13:33:04;;;;;;;;;;;2.10;99.90;;;;;;5006592;28;20047;-74
2023/01/21 13:35:49;;;;;;;;;;;2.10;99.90;;;;;;5001596;28;19925;-75
2023/01/21 13:38:17;;;;;;;;;;;2.10;99.90;;;;;;5006884;28;20240;-73
2023/01/21 13:40:56;;;;;;;;;;;2.00;99.90;;;;;;5011455;28;19924;-74
2023/01/21 13:43:25;;;;;;;;;;;2.10;99.90;;;;;;5014319;28;19913;-73
2023/01/21 13:46:11;;;;;;;;;;;2.20;99.90;;;;;;5008586;28;19909;-72
2023/01/21 13:48:57;;;;;;;;;;;2.10;99.90;;;;;;5008095;28;19979;-74
2023/01/21 13:51:33;;;;;;;;;;;2.20;99.90;;;;;;5013903;28;19909;-73
2023/01/21 13:54:10;;;;;;;;;;;2.10;99.90;;;;;;5013105;28;19913;-73
2023/01/21 13:56:38;;;;;;;;;;;1.90;99.90;;;;;;5002575;28;19920;-74
2023/01/21 13:59:11;;;;;;;;;;;2.10;99.90;;;;;;5011420;28;19918;-73
2023/01/21 14:01:48;;;;;;;;;;;2.20;99.90;;;;;;5013201;28;19917;-74
2023/01/21 14:04:13;;;;;;;;;;;2.00;99.90;;;;;;5005412;28;20013;-75
2023/01/21 14:06:48;;;;;;;;;;;2.20;99.90;;;;;;5006693;28;20012;-73
2023/01/21 14:09:19;;;;;;;;;;;2.40;99.90;;;;;;5014566;28;19959;-73
2023/01/21 14:11:51;;;;;;;;;;;2.40;99.90;;;;;;5006970;28;21127;-74
2023/01/21 14:14:17;;;;;;;;;;;2.10;99.90;;;;;;5005303;28;19913;-74
2023/01/21 14:17:01;;;;;;;;;;;2.10;99.90;;;;;;5008176;28;19964;-72
2023/01/21 14:19:32;;;;;;;;;;;1.90;99.90;;;;;;5012813;28;20422;-74
2023/01/21 14:22:07;;;;;;;;;;;1.90;99.90;;;;;;5018270;28;19913;-74
2023/01/21 14:24:38;;;;;;;;;;;1.90;99.90;;;;;;5014073;28;19914;-72
2023/01/21 14:27:13;;;;;;;;;;;1.90;99.90;;;;;;5008983;28;19909;-73
2023/01/21 14:29:49;;;;;;;;;;;2.00;99.90;;;;;;5013060;28;19913;-74
2023/01/21 14:32:35;;;;;;;;;;;2.10;99.90;;;;;;5012907;28;19921;-74
2023/01/21 14:35:04;;;;;;;;;;;2.20;99.90;;;;;;5006607;28;20319;-73
2023/01/21 14:37:33;;;;;;;;;;;2.10;99.90;;;;;;5009631;28;19916;-75
2023/01/21 14:39:58;;;;;;;;;;;2.10;99.90;;;;;;5012891;28;20574;-74
2023/01/21 14:42:42;;;;;;;;;;;2.10;99.90;;;;;;5009002;28;19986;-75
2023/01/21 14:45:08;;;;;;;;;;;2.20;99.90;;;;;;4999290;28;19939;-74
2023/01/21 14:47:33;;;;;;;;;;;2.40;99.90;;;;;;5014891;28;19914;-74